VNY weather

Van Nuys Airport
Van Nuys, California, United States

Public forecast

Using degrees Fahrenheit for public forecast. Weather courtesy of forecast.io.

METAR (pilot weather report)

Retrieved 2019/06/27 04:51 UTC (27 minutes ago):

KVNY 270451Z 12004KT 10SM CLR 18/14 A2997 RMK AO2 SLP142 T01780139

TAF (pilot weather forecast)

Forecast is more than 12 hours old.

Retrieved 2019/06/26 00:22 UTC (1 day ago):

TAF KVNY 262320Z 2700/2724 16010KT P6SM SKC FM270400 14004KT P6SM SKC FM270900 13003KT 3SM BR OVC009 FM271630 VRB03KT P6SM BKN014 FM271800 15008KT P6SM FEW014